createdAt,value
2018-07-02T18:45:53.958Z,57.30
2018-07-02T18:48:22.157Z,57.80
2018-07-02T18:50:50.397Z,58.30
2018-07-02T18:53:18.619Z,58.10
2018-07-02T18:55:46.792Z,59.10
2018-07-02T18:58:15.045Z,57.90
2018-07-02T19:00:43.276Z,57.40
2018-07-02T19:03:11.542Z,57.40
2018-07-02T19:05:40.465Z,57.00
2018-07-02T19:08:08.777Z,58.10
2018-07-02T19:10:37.018Z,57.60
2018-07-02T19:13:05.545Z,59.50
2018-07-02T19:15:33.772Z,60.20
2018-07-02T19:18:01.965Z,59.40
2018-07-02T19:20:30.303Z,60.40
2018-07-02T19:22:58.589Z,60.50
2018-07-02T19:25:26.790Z,60.10
2018-07-02T19:30:24.953Z,61.50
2018-07-02T19:32:53.168Z,62.60
2018-07-02T19:35:21.338Z,62.30
2018-07-02T19:37:49.547Z,63.10
2018-07-02T19:40:19.220Z,61.70
2018-07-02T19:42:48.281Z,61.30
2018-07-02T19:45:16.548Z,61.00
2018-07-02T19:47:45.326Z,61.00
2018-07-02T19:50:13.540Z,63.00
2018-07-02T19:52:42.580Z,64.00
2018-07-02T19:55:10.849Z,64.50
2018-07-02T19:57:39.103Z,65.30
2018-07-02T20:00:07.364Z,65.50
2018-07-02T20:02:35.629Z,64.50
2018-07-02T20:05:03.960Z,63.80
2018-07-02T20:07:32.178Z,64.10
2018-07-02T20:10:00.403Z,63.90
2018-07-02T20:12:28.637Z,64.30
2018-07-02T20:14:56.830Z,64.30
2018-07-02T20:17:25.037Z,65.00
2018-07-02T20:19:53.256Z,66.90
2018-07-02T20:22:21.500Z,66.80
2018-07-02T20:24:49.673Z,67.50
2018-07-02T20:27:17.909Z,68.00
2018-07-02T20:29:46.101Z,68.30
2018-07-02T20:32:14.384Z,68.50
2018-07-02T20:34:42.650Z,69.80
2018-07-02T20:37:10.881Z,69.30
2018-07-02T20:39:39.073Z,68.90
2018-07-02T20:42:07.276Z,68.00
2018-07-02T20:44:35.553Z,67.50
2018-07-02T20:47:03.806Z,66.20
2018-07-02T20:49:32.061Z,66.80
2018-07-02T20:52:00.274Z,66.20
2018-07-02T20:54:28.484Z,66.00
2018-07-02T20:56:56.709Z,65.90
2018-07-02T20:59:24.917Z,67.70
2018-07-02T21:01:53.161Z,69.30
2018-07-02T21:04:21.352Z,70.10
2018-07-02T21:06:49.584Z,70.30
2018-07-02T21:09:17.832Z,71.10
2018-07-02T21:11:46.028Z,70.70
2018-07-02T21:14:14.236Z,70.90
2018-07-02T21:16:42.405Z,70.90
2018-07-02T21:19:10.658Z,70.50
2018-07-02T21:21:38.853Z,71.00
2018-07-02T21:24:07.138Z,71.20
2018-07-02T21:26:35.342Z,71.90
2018-07-02T21:29:03.646Z,73.30
2018-07-02T21:31:31.838Z,72.80
2018-07-02T21:34:00.102Z,72.80
2018-07-02T21:36:28.313Z,72.80
2018-07-02T21:38:56.512Z,72.90
2018-07-02T21:41:24.788Z,72.40
2018-07-02T21:43:53.071Z,72.10
2018-07-02T21:46:21.355Z,72.80
2018-07-02T21:48:49.589Z,73.40
2018-07-02T21:51:19.314Z,74.20
2018-07-02T21:53:47.541Z,74.40
2018-07-02T21:56:15.749Z,74.80
2018-07-02T21:58:43.921Z,74.10
2018-07-02T22:01:12.969Z,73.90
2018-07-02T22:03:41.128Z,74.40
2018-07-02T22:06:09.331Z,73.40
2018-07-02T22:08:37.548Z,73.00
2018-07-02T22:11:05.801Z,72.50
2018-07-02T22:13:34.006Z,72.10
2018-07-02T22:16:02.242Z,72.70
2018-07-02T22:18:30.488Z,72.90
2018-07-02T22:20:59.699Z,73.80
2018-07-02T22:23:27.919Z,74.50
2018-07-02T22:28:24.113Z,76.10
2018-07-02T22:30:52.348Z,75.90
2018-07-02T22:33:20.548Z,76.00
2018-07-02T22:35:48.746Z,75.60
2018-07-02T22:38:16.955Z,75.70
2018-07-02T22:40:45.160Z,75.00
2018-07-02T22:43:13.379Z,75.20
2018-07-02T22:45:41.672Z,74.70
2018-07-02T22:48:09.880Z,75.10
2018-07-02T22:50:38.171Z,77.10
2018-07-02T22:53:06.597Z,76.70
2018-07-02T22:55:45.794Z,77.20
2018-07-02T22:58:14.000Z,77.40
2018-07-02T23:00:42.188Z,77.50
2018-07-02T23:03:10.376Z,76.50
2018-07-02T23:05:38.533Z,75.90
2018-07-02T23:08:06.762Z,75.40
2018-07-02T23:10:34.919Z,75.20
2018-07-02T23:13:03.199Z,75.40
2018-07-02T23:15:31.412Z,75.50
2018-07-02T23:17:59.665Z,75.80
2018-07-02T23:20:27.976Z,75.90
2018-07-02T23:23:00.066Z,75.50
2018-07-02T23:25:28.957Z,75.20
2018-07-02T23:27:58.675Z,75.60
2018-07-02T23:30:27.592Z,75.20
2018-07-02T23:32:55.761Z,76.30
2018-07-02T23:35:24.025Z,76.10
2018-07-02T23:37:52.465Z,75.80
2018-07-02T23:40:22.345Z,75.70
2018-07-02T23:42:51.796Z,74.90
2018-07-02T23:45:20.876Z,75.20
2018-07-02T23:47:49.197Z,75.10
2018-07-02T23:50:17.408Z,75.80
2018-07-02T23:52:45.577Z,76.30
2018-07-02T23:55:13.791Z,77.30
2018-07-02T23:57:41.969Z,77.90
